Time;durP1;ratioP1;P1;durP2;ratioP2;P2;SDS_P1;SDS_P2;PMS_P1;PMS_P2;Temp;Humidity;BMP_temperature;BMP_pressure;BME280_temperature;BME280_humidity;BME280_pressure;Samples;Min_cycle;Max_cycle;Signal;HPM_P1;HPM_P2
2023/07/20 00:00:12;;;;;;;23.67;22.70;;;24.50;78.00;;;;;;5135364;27;20480;-60
2023/07/20 00:02:39;;;;;;;22.90;22.10;;;24.50;78.20;;;;;;5135330;27;20452;-58
2023/07/20 00:05:07;;;;;;;23.90;23.00;;;24.50;77.90;;;;;;5135218;27;21064;-58
2023/07/20 00:07:33;;;;;;;21.90;21.10;;;24.50;78.10;;;;;;5135029;27;20436;-58
2023/07/20 00:10:02;;;;;;;22.63;21.87;;;24.50;78.00;;;;;;5134857;27;20476;-61
2023/07/20 00:12:29;;;;;;;21.60;20.90;;;24.50;78.10;;;;;;5135197;27;20476;-60
2023/07/20 00:14:55;;;;;;;21.80;21.10;;;24.50;78.40;;;;;;5134622;27;20540;-59
2023/07/20 00:17:22;;;;;;;22.13;21.23;;;24.40;78.40;;;;;;5134850;27;20472;-60
2023/07/20 00:19:49;;;;;;;21.63;20.73;;;24.50;78.40;;;;;;5134780;27;20480;-59
2023/07/20 00:22:16;;;;;;;22.40;21.60;;;24.50;78.20;;;;;;5134985;27;20479;-58
2023/07/20 00:24:43;;;;;;;24.43;23.53;;;24.50;78.50;;;;;;5134827;27;20563;-59
2023/07/20 00:27:11;;;;;;;23.90;23.10;;;24.50;78.50;;;;;;5134702;27;20479;-56
2023/07/20 00:29:38;;;;;;;21.50;20.70;;;24.40;78.60;;;;;;5134866;27;20517;-57
2023/07/20 00:32:06;;;;;;;24.03;23.23;;;24.40;78.60;;;;;;5114577;27;20830;-59
2023/07/20 00:34:34;;;;;;;21.90;21.20;;;24.40;79.00;;;;;;5114153;28;20978;-60
2023/07/20 00:37:00;;;;;;;22.37;21.60;;;24.40;78.80;;;;;;5113933;28;20453;-59
2023/07/20 00:39:27;;;;;;;21.53;20.73;;;24.40;79.00;;;;;;5114093;28;20984;-59
2023/07/20 00:41:54;;;;;;;22.17;21.27;;;24.40;78.90;;;;;;5114042;27;20526;-59
2023/07/20 00:44:23;;;;;;;24.47;23.67;;;24.40;78.80;;;;;;5113812;28;20523;-61
2023/07/20 00:46:50;;;;;;;24.20;23.30;;;24.40;79.10;;;;;;5113769;28;20484;-59
2023/07/20 00:49:20;;;;;;;21.90;20.73;;;24.40;79.30;;;;;;5113859;28;20484;-59
2023/07/20 00:51:48;;;;;;;22.00;21.10;;;24.30;80.20;;;;;;5130762;27;20509;-58
2023/07/20 00:54:16;;;;;;;22.63;21.93;;;24.30;79.90;;;;;;5134187;27;20499;-59
2023/07/20 00:56:43;;;;;;;22.73;21.83;;;24.30;79.70;;;;;;5133757;27;20463;-59
2023/07/20 00:59:11;;;;;;;21.87;21.17;;;24.30;80.30;;;;;;5134183;27;20479;-61
2023/07/20 01:01:38;;;;;;;22.20;21.50;;;24.20;80.20;;;;;;5134237;27;20448;-61
2023/07/20 01:04:05;;;;;;;23.80;22.90;;;24.20;80.40;;;;;;5134047;27;20483;-61
2023/07/20 01:06:42;;;;;;;26.00;25.00;;;24.20;80.60;;;;;;5133631;27;20825;-61
2023/07/20 01:09:14;;;;;;;27.97;26.87;;;24.20;80.60;;;;;;5133981;27;20539;-61
2023/07/20 01:11:48;;;;;;;21.43;20.63;;;24.20;80.90;;;;;;5133991;27;20443;-61
2023/07/20 01:14:16;;;;;;;23.23;22.43;;;24.30;81.00;;;;;;5133950;27;20464;-61
2023/07/20 01:16:45;;;;;;;22.73;21.97;;;24.20;81.50;;;;;;5133413;27;20474;-61
2023/07/20 01:19:14;;;;;;;22.23;21.33;;;24.20;81.80;;;;;;5133933;27;20812;-61
2023/07/20 01:21:46;;;;;;;21.63;20.93;;;24.20;82.30;;;;;;5133725;27;20440;-61
2023/07/20 01:24:51;;;;;;;23.17;22.37;;;24.20;82.80;;;;;;5133373;27;20508;-61
2023/07/20 01:27:57;;;;;;;24.37;23.37;;;24.20;83.40;;;;;;5049641;28;20467;-61
2023/07/20 01:30:50;;;;;;;23.37;22.57;;;24.20;84.10;;;;;;5133693;27;20479;-61
2023/07/20 01:33:20;;;;;;;21.77;20.97;;;24.20;84.40;;;;;;5133520;27;20497;-61
2023/07/20 01:35:52;;;;;;;22.37;21.50;;;24.20;84.70;;;;;;5133374;27;21008;-61
2023/07/20 01:38:20;;;;;;;23.20;22.30;;;24.10;84.90;;;;;;5133005;27;20491;-61
2023/07/20 01:40:47;;;;;;;21.60;20.80;;;24.10;85.50;;;;;;5133360;27;20473;-61
2023/07/20 01:43:14;;;;;;;21.57;20.80;;;24.10;85.40;;;;;;5131614;27;20466;-61
2023/07/20 01:45:41;;;;;;;20.87;20.17;;;24.10;85.40;;;;;;5132577;27;20929;-61
2023/07/20 01:48:08;;;;;;;22.80;22.00;;;24.10;85.50;;;;;;5133129;27;20874;-61
2023/07/20 01:50:36;;;;;;;22.70;21.87;;;24.10;85.50;;;;;;5133260;27;20441;-61
2023/07/20 01:53:03;;;;;;;25.50;24.17;;;24.10;85.60;;;;;;5133601;27;20962;-61
2023/07/20 01:55:30;;;;;;;22.37;21.67;;;24.10;85.80;;;;;;5132710;27;20555;-61
2023/07/20 01:57:59;;;;;;;22.17;21.47;;;24.10;85.60;;;;;;5132920;27;20897;-61
2023/07/20 02:00:26;;;;;;;22.87;22.07;;;24.10;85.40;;;;;;5133192;27;20455;-57
2023/07/20 02:02:53;;;;;;;23.87;22.97;;;24.10;85.50;;;;;;5132390;27;20472;-55
2023/07/20 02:05:20;;;;;;;23.57;22.67;;;24.10;86.10;;;;;;5132455;27;20508;-56
2023/07/20 02:07:48;;;;;;;21.63;20.90;;;24.10;85.80;;;;;;5132740;27;20532;-59
2023/07/20 02:10:15;;;;;;;23.80;22.90;;;24.10;86.10;;;;;;5132850;27;20472;-58
2023/07/20 02:12:42;;;;;;;22.50;21.73;;;24.10;86.70;;;;;;5123612;27;20532;-58
2023/07/20 02:15:11;;;;;;;22.10;21.40;;;24.00;86.80;;;;;;5112253;28;20594;-59
2023/07/20 02:17:40;;;;;;;21.90;21.00;;;24.00;87.10;;;;;;5112007;28;20867;-61
2023/07/20 02:20:09;;;;;;;23.00;22.30;;;24.00;87.50;;;;;;5112242;28;20510;-59
2023/07/20 02:22:37;;;;;;;21.60;20.90;;;23.90;87.50;;;;;;5119855;27;20441;-58
2023/07/20 02:25:06;;;;;;;23.73;22.90;;;23.90;87.70;;;;;;5115806;27;20474;-56
2023/07/20 02:27:34;;;;;;;23.30;22.27;;;23.90;88.50;;;;;;5131956;27;21006;-57
2023/07/20 02:30:00;;;;;;;20.80;20.00;;;23.90;89.20;;;;;;5132531;27;20855;-56
2023/07/20 02:32:28;;;;;;;23.13;22.20;;;23.80;88.90;;;;;;5126127;27;20524;-59
2023/07/20 02:34:55;;;;;;;22.37;21.47;;;23.90;89.30;;;;;;5111948;28;21054;-58
2023/07/20 02:37:22;;;;;;;21.43;20.73;;;23.80;89.30;;;;;;5111613;28;20446;-60
2023/07/20 02:39:49;;;;;;;22.97;22.10;;;23.80;89.50;;;;;;5112132;28;20476;-60
2023/07/20 02:42:19;;;;;;;25.13;24.13;;;23.80;89.60;;;;;;5116149;28;20458;-60
2023/07/20 02:44:46;;;;;;;23.10;22.30;;;23.80;89.50;;;;;;5132375;28;20557;-59
2023/07/20 02:47:13;;;;;;;22.80;22.00;;;23.80;89.90;;;;;;5132241;28;20535;-60
2023/07/20 02:49:40;;;;;;;23.50;22.60;;;23.80;90.00;;;;;;5132352;28;20934;-57
2023/07/20 02:52:07;;;;;;;23.63;22.63;;;23.70;90.10;;;;;;5129238;28;20500;-58
2023/07/20 02:54:34;;;;;;;22.47;21.57;;;23.70;90.10;;;;;;5112285;28;20544;-62
2023/07/20 02:57:01;;;;;;;22.37;21.57;;;23.70;90.10;;;;;;5111614;28;20524;-61
2023/07/20 02:59:29;;;;;;;24.23;23.03;;;23.70;90.10;;;;;;5111831;28;20528;-61
2023/07/20 03:01:57;;;;;;;23.53;22.63;;;23.70;90.10;;;;;;5112728;28;21020;-61
2023/07/20 03:04:24;;;;;;;23.43;22.23;;;23.70;90.30;;;;;;5132077;28;20484;-61
2023/07/20 03:06:51;;;;;;;25.80;24.80;;;23.70;90.40;;;;;;5132096;28;20494;-61
2023/07/20 03:09:18;;;;;;;21.40;20.70;;;23.70;90.40;;;;;;5132181;28;20485;-61
2023/07/20 03:11:45;;;;;;;21.87;21.07;;;23.70;90.40;;;;;;5118365;28;20561;-61
2023/07/20 03:14:12;;;;;;;22.10;21.30;;;23.70;90.30;;;;;;5111641;28;20529;-61
2023/07/20 03:16:40;;;;;;;21.60;20.80;;;23.70;90.30;;;;;;5111433;28;20905;-60
2023/07/20 03:19:07;;;;;;;24.47;23.57;;;23.70;90.30;;;;;;5111554;28;20484;-61
2023/07/20 03:21:34;;;;;;;23.97;23.17;;;23.70;90.40;;;;;;5123242;28;20532;-61
2023/07/20 03:24:01;;;;;;;23.40;22.30;;;23.70;90.60;;;;;;5132064;28;20480;-61
2023/07/20 03:26:28;;;;;;;23.10;22.30;;;23.70;90.50;;;;;;5131829;28;20499;-61
2023/07/20 03:28:55;;;;;;;24.40;23.50;;;23.70;90.50;;;;;;5132093;28;20479;-61
2023/07/20 03:31:21;;;;;;;23.33;22.53;;;23.70;90.50;;;;;;5121795;28;20549;-61
2023/07/20 03:33:50;;;;;;;23.40;22.50;;;23.70;90.60;;;;;;5111451;28;20437;-61
2023/07/20 03:36:17;;;;;;;23.10;22.20;;;23.60;90.80;;;;;;5111305;28;20485;-61
2023/07/20 03:38:43;;;;;;;24.57;23.37;;;23.60;90.90;;;;;;5111370;28;20545;-61
2023/07/20 03:41:11;;;;;;;22.30;21.40;;;23.60;90.90;;;;;;5119230;28;20476;-61
2023/07/20 03:43:38;;;;;;;23.37;22.47;;;23.60;91.10;;;;;;5132027;28;20983;-61
2023/07/20 03:46:06;;;;;;;24.47;23.53;;;23.60;91.20;;;;;;5131573;28;20512;-61
2023/07/20 03:48:34;;;;;;;23.17;22.33;;;23.50;91.40;;;;;;5132941;27;20505;-61
2023/07/20 03:51:02;;;;;;;22.93;22.13;;;23.50;91.40;;;;;;5128975;27;20520;-61
2023/07/20 03:53:29;;;;;;;22.77;21.60;;;23.50;91.40;;;;;;5114926;28;20480;-61
2023/07/20 03:55:56;;;;;;;23.83;22.80;;;23.50;91.60;;;;;;5114632;28;20549;-61
2023/07/20 03:58:23;;;;;;;24.73;23.77;;;23.50;91.70;;;;;;5114879;28;21002;-61
2023/07/20 04:00:51;;;;;;;24.80;23.90;;;23.50;91.80;;;;;;5119198;27;20870;-61
2023/07/20 04:03:18;;;;;;;23.33;22.53;;;23.50;91.90;;;;;;5135344;27;20449;-61
2023/07/20 04:05:45;;;;;;;23.80;23.00;;;23.50;91.70;;;;;;5135051;27;20487;-61
2023/07/20 04:08:14;;;;;;;25.93;24.93;;;23.40;91.70;;;;;;5135136;27;20471;-61
2023/07/20 04:10:44;;;;;;;27.77;26.87;;;23.50;92.00;;;;;;5132855;27;20997;-61
2023/07/20 04:13:11;;;;;;;26.50;25.50;;;23.40;92.10;;;;;;5122151;27;20477;-61
2023/07/20 04:15:38;;;;;;;25.40;24.43;;;23.40;92.20;;;;;;5114443;28;20532;-61
2023/07/20 04:18:05;;;;;;;28.23;26.77;;;23.30;92.20;;;;;;5114273;28;20525;-61
2023/07/20 04:20:32;;;;;;;28.30;27.00;;;23.30;92.70;;;;;;5129903;27;20527;-61
2023/07/20 04:22:58;;;;;;;25.30;24.30;;;23.30;93.20;;;;;;5134983;27;20523;-61
2023/07/20 04:25:27;;;;;;;28.00;27.00;;;23.30;93.70;;;;;;5134779;27;20572;-61
2023/07/20 04:27:55;;;;;;;27.37;26.07;;;23.30;94.50;;;;;;5134728;27;20529;-61
2023/07/20 04:30:22;;;;;;;27.60;25.93;;;23.30;95.10;;;;;;5120628;27;20532;-61
2023/07/20 04:32:49;;;;;;;31.17;29.80;;;23.30;95.50;;;;;;5114200;28;20473;-61
2023/07/20 04:35:19;;;;;;;28.50;27.13;;;23.30;95.70;;;;;;5114136;28;20469;-61
2023/07/20 04:37:46;;;;;;;25.03;23.97;;;23.30;95.80;;;;;;5113902;28;20446;-60
2023/07/20 04:40:14;;;;;;;29.73;27.50;;;23.30;96.00;;;;;;5126236;27;20536;-62
2023/07/20 04:42:42;;;;;;;26.00;25.00;;;23.30;96.90;;;;;;5134635;27;20483;-62
2023/07/20 04:45:10;;;;;;;26.27;24.70;;;23.40;96.20;;;;;;5134348;27;20512;-62
2023/07/20 04:47:37;;;;;;;26.00;25.10;;;23.40;95.40;;;;;;5134365;27;20519;-62
2023/07/20 04:50:04;;;;;;;26.20;25.20;;;23.40;95.30;;;;;;5134360;27;20468;-62
2023/07/20 04:52:31;;;;;;;26.20;25.10;;;23.50;94.90;;;;;;5134505;27;20573;-63
2023/07/20 04:54:58;;;;;;;26.43;25.43;;;23.50;94.80;;;;;;5134197;27;20512;-63
2023/07/20 04:57:25;;;;;;;27.37;26.37;;;23.50;94.50;;;;;;5134018;27;20487;-63
2023/07/20 04:59:54;;;;;;;25.80;24.90;;;23.50;94.00;;;;;;5134220;27;20456;-63
2023/07/20 05:02:21;;;;;;;24.17;23.30;;;23.50;94.00;;;;;;5134179;27;20548;-63
2023/07/20 05:04:47;;;;;;;25.77;24.67;;;23.50;93.80;;;;;;5134020;27;20575;-63
2023/07/20 05:07:14;;;;;;;28.17;27.13;;;23.50;93.60;;;;;;5133875;27;20957;-63
2023/07/20 05:09:41;;;;;;;24.70;23.80;;;23.50;93.50;;;;;;5134144;27;21008;-63
2023/07/20 05:12:08;;;;;;;25.43;24.43;;;23.50;93.40;;;;;;5134006;27;20972;-63
2023/07/20 05:14:35;;;;;;;29.03;27.87;;;23.50;93.40;;;;;;5133899;27;20495;-63
2023/07/20 05:17:03;;;;;;;26.63;25.17;;;23.50;93.30;;;;;;5133671;27;20520;-63
2023/07/20 05:19:30;;;;;;;25.97;24.93;;;23.50;93.40;;;;;;5133782;27;20480;-63
2023/07/20 05:21:57;;;;;;;25.73;24.73;;;23.50;93.40;;;;;;5134084;27;20444;-63
2023/07/20 05:24:24;;;;;;;25.80;24.40;;;23.50;93.30;;;;;;5133842;27;20548;-63
2023/07/20 05:26:51;;;;;;;26.80;25.77;;;23.50;93.30;;;;;;5133559;27;20483;-62
2023/07/20 05:29:18;;;;;;;26.10;25.10;;;23.50;93.40;;;;;;5133616;27;21052;-63
2023/07/20 05:31:45;;;;;;;27.27;26.17;;;23.50;93.20;;;;;;5133534;27;20532;-63
2023/07/20 05:34:13;;;;;;;28.30;27.10;;;23.50;93.20;;;;;;5134080;27;20531;-62
2023/07/20 05:36:40;;;;;;;26.67;25.67;;;23.50;93.30;;;;;;5133336;27;20490;-62
2023/07/20 05:39:07;;;;;;;27.10;25.87;;;23.50;93.20;;;;;;5133772;27;20472;-62
2023/07/20 05:41:34;;;;;;;25.57;24.57;;;23.50;93.30;;;;;;5134184;27;20464;-63
2023/07/20 05:44:01;;;;;;;27.70;26.60;;;23.50;93.30;;;;;;5134149;27;20432;-63
2023/07/20 05:46:27;;;;;;;28.43;27.37;;;23.50;93.30;;;;;;5133818;27;20580;-63
2023/07/20 05:48:54;;;;;;;25.70;24.30;;;23.50;93.30;;;;;;5133304;27;20528;-61
2023/07/20 05:51:23;;;;;;;27.50;26.33;;;23.50;93.20;;;;;;5133321;27;20528;-63
2023/07/20 05:53:49;;;;;;;26.87;25.77;;;23.50;93.20;;;;;;5133548;27;20527;-63
2023/07/20 05:56:16;;;;;;;27.43;26.30;;;23.50;93.30;;;;;;5133412;27;20511;-63
2023/07/20 05:58:43;;;;;;;26.77;25.77;;;23.50;93.10;;;;;;5133742;27;20564;-63
2023/07/20 06:01:10;;;;;;;25.40;24.07;;;23.50;93.20;;;;;;5133923;27;20472;-63
2023/07/20 06:03:37;;;;;;;25.77;24.67;;;23.50;93.10;;;;;;5133348;27;20440;-63
2023/07/20 06:06:05;;;;;;;27.90;26.80;;;23.50;93.10;;;;;;5132830;27;20563;-60
2023/07/20 06:08:33;;;;;;;25.77;24.60;;;23.50;93.20;;;;;;5133026;27;20536;-62
2023/07/20 06:11:01;;;;;;;25.40;24.50;;;23.50;93.10;;;;;;5132507;27;20453;-61
2023/07/20 06:13:28;;;;;;;26.73;25.63;;;23.50;93.20;;;;;;5132848;27;20527;-62
2023/07/20 06:15:55;;;;;;;26.20;25.30;;;23.60;93.20;;;;;;5132730;27;20536;-58
2023/07/20 06:18:23;;;;;;;26.10;25.10;;;23.50;93.20;;;;;;5133085;27;20477;-59
2023/07/20 06:20:51;;;;;;;28.77;27.67;;;23.50;93.10;;;;;;5133244;27;20524;-59
2023/07/20 06:23:18;;;;;;;28.03;26.77;;;23.50;93.20;;;;;;5133528;27;20883;-63
2023/07/20 06:25:46;;;;;;;26.83;25.83;;;23.50;93.10;;;;;;5132851;27;20559;-62
2023/07/20 06:28:13;;;;;;;26.70;25.70;;;23.50;92.90;;;;;;5132468;27;20539;-62
2023/07/20 06:30:40;;;;;;;27.80;26.80;;;23.50;93.00;;;;;;5133206;27;20874;-63
2023/07/20 06:33:07;;;;;;;28.17;27.07;;;23.50;93.00;;;;;;5132845;27;20489;-62
2023/07/20 06:35:35;;;;;;;26.07;25.07;;;23.50;93.00;;;;;;5132762;27;20879;-62
2023/07/20 06:38:03;;;;;;;27.23;26.03;;;23.60;93.10;;;;;;5132471;27;20552;-62
2023/07/20 06:40:30;;;;;;;27.40;26.30;;;23.60;92.90;;;;;;5132566;27;20453;-63
2023/07/20 06:42:58;;;;;;;27.33;26.30;;;23.60;93.10;;;;;;5132653;27;20792;-60
2023/07/20 06:45:25;;;;;;;29.03;27.90;;;23.60;93.00;;;;;;5132546;28;20567;-59
2023/07/20 06:47:52;;;;;;;26.03;25.13;;;23.60;93.00;;;;;;5132493;28;20479;-59
2023/07/20 06:50:19;;;;;;;26.47;25.40;;;23.60;92.80;;;;;;5132434;28;20472;-63
2023/07/20 06:52:47;;;;;;;27.67;26.67;;;23.60;92.70;;;;;;5132400;28;20864;-58
2023/07/20 06:55:14;;;;;;;26.50;25.27;;;23.60;92.60;;;;;;5132363;28;20477;-62
2023/07/20 06:57:41;;;;;;;29.17;28.17;;;23.60;92.40;;;;;;5132514;28;20814;-62
2023/07/20 07:00:11;;;;;;;26.37;25.47;;;23.60;92.40;;;;;;5132724;28;20444;-63
2023/07/20 07:02:38;;;;;;;30.90;29.60;;;23.60;92.10;;;;;;5132290;28;20440;-62
2023/07/20 07:05:06;;;;;;;25.73;24.30;;;23.60;92.00;;;;;;5132184;28;20551;-63
2023/07/20 07:07:33;;;;;;;26.20;25.30;;;23.60;92.00;;;;;;5132322;28;20455;-63
2023/07/20 07:10:00;;;;;;;27.07;26.10;;;23.60;91.90;;;;;;5132148;28;20468;-63
2023/07/20 07:12:27;;;;;;;26.50;25.60;;;23.60;91.80;;;;;;5132102;28;20472;-61
2023/07/20 07:14:54;;;;;;;27.33;26.43;;;23.60;91.70;;;;;;5132314;28;20535;-63
2023/07/20 07:17:22;;;;;;;28.73;27.63;;;23.60;91.60;;;;;;5132267;28;20437;-63
2023/07/20 07:19:49;;;;;;;27.87;26.90;;;23.60;91.40;;;;;;5132435;28;20559;-63
2023/07/20 07:22:16;;;;;;;28.50;27.40;;;23.60;91.40;;;;;;5132120;27;20515;-59
2023/07/20 07:24:43;;;;;;;28.90;27.90;;;23.60;91.30;;;;;;5135337;27;20464;-61
2023/07/20 07:27:10;;;;;;;30.03;28.83;;;23.60;91.30;;;;;;5135640;27;20567;-62
2023/07/20 07:29:37;;;;;;;29.50;28.40;;;23.60;91.20;;;;;;5136152;27;20531;-56
2023/07/20 07:32:05;;;;;;;28.50;27.50;;;23.60;91.00;;;;;;5136099;27;20864;-63
2023/07/20 07:34:34;;;;;;;27.77;26.87;;;23.60;91.00;;;;;;5135851;27;20945;-57
2023/07/20 07:37:01;;;;;;;26.50;25.60;;;23.60;90.90;;;;;;5135812;27;20441;-62
2023/07/20 07:39:29;;;;;;;27.87;26.87;;;23.60;90.90;;;;;;5135909;27;20531;-63
2023/07/20 07:41:56;;;;;;;26.90;26.00;;;23.60;90.70;;;;;;5135843;27;20440;-62
2023/07/20 07:44:23;;;;;;;26.10;25.20;;;23.60;90.50;;;;;;5135800;27;20523;-63
2023/07/20 07:46:50;;;;;;;26.53;25.53;;;23.60;90.50;;;;;;5135576;27;20911;-61
2023/07/20 07:49:18;;;;;;;27.30;26.33;;;23.60;90.40;;;;;;5135749;27;20487;-62
2023/07/20 07:51:46;;;;;;;28.23;27.23;;;23.60;90.20;;;;;;5135695;27;20448;-63
2023/07/20 07:54:13;;;;;;;27.20;26.20;;;23.60;90.00;;;;;;5135539;27;20464;-62
2023/07/20 07:56:40;;;;;;;26.80;25.80;;;23.60;89.80;;;;;;5135766;27;20476;-59
2023/07/20 07:59:07;;;;;;;26.93;26.03;;;23.60;89.50;;;;;;5135459;27;20437;-62
2023/07/20 08:01:34;;;;;;;26.73;25.83;;;23.60;89.30;;;;;;5135652;27;20521;-63
2023/07/20 08:04:01;;;;;;;26.03;25.13;;;23.60;89.10;;;;;;5135662;27;20490;-63
2023/07/20 08:06:28;;;;;;;26.80;25.90;;;23.60;88.90;;;;;;5135368;27;20520;-60
2023/07/20 08:08:56;;;;;;;25.67;24.77;;;23.60;88.70;;;;;;5135474;27;20527;-60
2023/07/20 08:11:24;;;;;;;27.23;26.33;;;23.60;88.60;;;;;;5135167;27;20540;-63
2023/07/20 08:13:51;;;;;;;25.63;24.83;;;23.60;88.30;;;;;;5135446;27;20475;-62
2023/07/20 08:16:18;;;;;;;27.37;26.47;;;23.60;88.10;;;;;;5135139;27;20486;-60
2023/07/20 08:18:45;;;;;;;25.37;24.37;;;23.60;88.00;;;;;;5135191;27;20868;-60
2023/07/20 08:21:12;;;;;;;25.40;24.60;;;23.60;87.90;;;;;;5135129;27;20469;-60
2023/07/20 08:23:39;;;;;;;26.90;26.00;;;23.60;87.90;;;;;;5135201;27;20479;-61
2023/07/20 08:26:07;;;;;;;26.37;25.47;;;23.60;87.70;;;;;;5134544;27;20890;-60
2023/07/20 08:28:35;;;;;;;26.40;25.60;;;23.60;87.60;;;;;;5135094;27;20468;-59
2023/07/20 08:31:02;;;;;;;26.60;25.80;;;23.60;87.40;;;;;;5134834;27;20497;-63
2023/07/20 08:33:33;;;;;;;26.77;25.90;;;23.60;87.30;;;;;;5135102;27;20480;-57
2023/07/20 08:36:00;;;;;;;26.70;25.70;;;23.60;87.10;;;;;;5134364;27;20461;-62
2023/07/20 08:38:27;;;;;;;25.77;24.87;;;23.60;86.80;;;;;;5134820;27;20475;-63
2023/07/20 08:40:55;;;;;;;25.07;24.17;;;23.60;86.40;;;;;;5134830;27;20528;-60
2023/07/20 08:43:24;;;;;;;26.10;25.30;;;23.60;86.00;;;;;;5135168;27;20831;-57
2023/07/20 08:45:54;;;;;;;25.27;24.47;;;23.60;85.70;;;;;;5134630;27;20483;-63
2023/07/20 08:48:21;;;;;;;26.80;25.90;;;23.60;85.60;;;;;;5135006;27;20531;-63
2023/07/20 08:50:50;;;;;;;28.17;27.27;;;23.60;85.30;;;;;;5134811;27;20531;-62
2023/07/20 08:53:17;;;;;;;26.90;26.00;;;23.60;85.10;;;;;;5134495;27;20523;-63
2023/07/20 08:55:46;;;;;;;26.43;25.53;;;23.60;85.00;;;;;;5148522;22;20483;-56
2023/07/20 08:58:14;;;;;;;26.43;25.53;;;23.60;84.90;;;;;;5072827;28;21027;-56
2023/07/20 09:00:43;;;;;;;25.97;25.17;;;23.70;85.00;;;;;;5073137;28;20810;-56
2023/07/20 09:03:11;;;;;;;26.40;25.60;;;23.60;84.80;;;;;;5073062;28;20483;-57
2023/07/20 09:05:38;;;;;;;27.43;26.53;;;23.60;84.50;;;;;;5072945;28;20495;-57
2023/07/20 09:08:05;;;;;;;26.53;25.63;;;23.60;84.20;;;;;;5072709;28;20534;-55
2023/07/20 09:10:32;;;;;;;26.97;26.07;;;23.60;84.00;;;;;;5072927;28;20964;-57
2023/07/20 09:12:59;;;;;;;27.73;26.77;;;23.60;83.40;;;;;;5072842;28;20478;-56
2023/07/20 09:15:26;;;;;;;26.97;26.10;;;23.60;83.20;;;;;;5072806;28;21227;-56
2023/07/20 09:17:55;;;;;;;29.27;28.37;;;23.60;82.50;;;;;;5072622;28;20500;-58
2023/07/20 09:20:22;;;;;;;26.70;25.80;;;23.60;81.70;;;;;;5072793;28;20494;-54
2023/07/20 09:22:49;;;;;;;26.40;25.60;;;23.60;81.10;;;;;;5072696;28;20527;-59
2023/07/20 09:25:19;;;;;;;26.40;25.60;;;23.60;81.20;;;;;;5072654;28;20470;-56
2023/07/20 09:27:47;;;;;;;26.27;25.47;;;23.60;81.10;;;;;;5072352;28;20483;-57
2023/07/20 09:30:16;;;;;;;25.20;24.40;;;23.70;81.20;;;;;;5072557;28;20482;-54
2023/07/20 09:32:45;;;;;;;27.10;26.20;;;23.60;80.80;;;;;;5072525;28;20546;-56
2023/07/20 09:35:17;;;;;;;26.50;25.70;;;23.70;80.60;;;;;;5072352;28;20495;-55
2023/07/20 09:37:51;;;;;;;27.73;26.83;;;23.70;80.60;;;;;;5072161;28;20463;-56
2023/07/20 09:40:18;;;;;;;27.67;26.77;;;23.70;80.40;;;;;;5072353;28;20451;-56
2023/07/20 09:42:45;;;;;;;28.47;27.57;;;23.70;80.10;;;;;;5072332;28;20531;-58
2023/07/20 09:45:13;;;;;;;28.37;27.47;;;23.70;79.70;;;;;;5072062;28;20495;-57
2023/07/20 09:47:41;;;;;;;26.93;26.10;;;23.70;79.60;;;;;;5071342;28;20570;-56
2023/07/20 09:50:10;;;;;;;25.53;24.73;;;23.70;79.70;;;;;;5072118;28;20509;-57
2023/07/20 09:52:41;;;;;;;26.00;25.17;;;23.70;78.90;;;;;;5072153;28;20951;-54
2023/07/20 09:55:09;;;;;;;27.47;26.57;;;23.70;78.80;;;;;;5076237;28;20517;-57
2023/07/20 09:57:36;;;;;;;27.43;26.53;;;23.70;78.80;;;;;;5092152;28;20541;-57
2023/07/20 10:00:12;;;;;;;26.87;25.97;;;23.70;78.60;;;;;;5092177;28;20947;-55
2023/07/20 10:02:44;;;;;;;26.10;25.30;;;23.70;78.40;;;;;;5092342;28;21039;-56
2023/07/20 10:05:13;;;;;;;25.00;24.20;;;23.70;78.00;;;;;;5092107;28;20469;-53
2023/07/20 10:07:47;;;;;;;26.37;25.57;;;23.70;77.90;;;;;;5091806;28;20478;-55
2023/07/20 10:10:16;;;;;;;26.80;25.90;;;23.70;77.00;;;;;;5092082;28;20453;-56
2023/07/20 10:12:47;;;;;;;25.27;24.47;;;23.70;76.70;;;;;;5092149;28;20534;-57
2023/07/20 10:15:20;;;;;;;28.07;27.17;;;23.70;75.70;;;;;;5091954;28;21038;-57
2023/07/20 10:18:08;;;;;;;27.70;26.80;;;23.70;75.70;;;;;;5091805;28;20513;-55
2023/07/20 10:20:37;;;;;;;27.53;26.63;;;23.70;75.60;;;;;;5091948;28;20447;-59
2023/07/20 10:23:06;;;;;;;26.37;25.57;;;23.70;75.80;;;;;;5091721;28;20470;-58
2023/07/20 10:25:37;;;;;;;24.90;24.10;;;23.70;75.60;;;;;;5091973;28;20520;-57
2023/07/20 10:28:05;;;;;;;25.83;25.03;;;23.70;75.40;;;;;;5091654;28;20478;-57
2023/07/20 10:30:33;;;;;;;27.90;27.00;;;23.70;75.30;;;;;;5091780;28;20518;-57
2023/07/20 10:33:02;;;;;;;27.40;26.50;;;23.80;75.00;;;;;;5091885;28;20542;-57
2023/07/20 10:35:30;;;;;;;29.00;28.10;;;23.80;75.50;;;;;;5091763;28;20467;-55
2023/07/20 10:38:01;;;;;;;27.13;26.23;;;23.80;74.30;;;;;;5091517;28;20550;-53
2023/07/20 10:40:32;;;;;;;23.55;22.75;;;23.80;72.40;;;;;;5092950;28;20531;-58
2023/07/20 10:43:04;;;;;;;26.00;25.20;;;23.80;73.10;;;;;;5111727;28;20294;-55
2023/07/20 10:45:40;;;;;;;27.03;26.20;;;23.90;71.90;;;;;;5110348;28;20651;-58
2023/07/20 10:48:13;;;;;;;27.37;26.47;;;23.90;70.90;;;;;;5090804;28;20907;-59
2023/07/20 10:50:41;;;;;;;28.13;27.23;;;23.90;70.00;;;;;;5091663;28;20947;-56
2023/07/20 10:53:16;;;;;;;28.17;27.17;;;23.90;68.90;;;;;;5106618;28;20533;-55
2023/07/20 10:55:46;;;;;;;27.60;26.70;;;24.00;68.20;;;;;;5111602;28;20480;-57
2023/07/20 10:58:15;;;;;;;28.73;27.83;;;24.00;67.30;;;;;;5106329;28;20946;-56
2023/07/20 11:01:00;;;;;;;29.10;28.20;;;24.00;67.20;;;;;;5093767;28;20437;-56
2023/07/20 11:03:32;;;;;;;27.83;26.93;;;24.10;67.90;;;;;;5115994;28;20524;-57
2023/07/20 11:06:00;;;;;;;26.70;25.77;;;24.10;67.90;;;;;;5096038;28;20462;-58
2023/07/20 11:08:42;;;;;;;27.27;26.03;;;24.20;67.90;;;;;;5095388;28;20500;-53
2023/07/20 11:11:28;;;;;;;26.37;25.50;;;24.20;68.10;;;;;;5075514;28;20474;-52
2023/07/20 11:13:56;;;;;;;28.00;27.10;;;24.20;67.30;;;;;;5075375;28;20478;-51
2023/07/20 11:16:36;;;;;;;28.33;27.43;;;24.20;67.00;;;;;;5074782;28;20546;-52
2023/07/20 11:19:04;;;;;;;26.80;25.90;;;24.20;66.50;;;;;;5075055;28;20470;-50
2023/07/20 11:21:36;;;;;;;28.57;27.57;;;24.20;66.20;;;;;;5074970;28;20455;-52
2023/07/20 11:24:04;;;;;;;27.10;26.10;;;24.20;66.20;;;;;;5074945;28;20451;-55
2023/07/20 11:26:41;;;;;;;27.57;26.67;;;24.20;66.00;;;;;;5074708;28;20463;-51
2023/07/20 11:29:08;;;;;;;26.50;25.70;;;24.20;66.10;;;;;;5074827;28;20493;-50
2023/07/20 11:31:36;;;;;;;27.70;26.80;;;24.20;66.30;;;;;;5074861;28;20486;-52
2023/07/20 11:34:03;;;;;;;27.57;26.77;;;24.20;66.20;;;;;;5074853;28;20492;-50
2023/07/20 11:36:30;;;;;;;26.20;25.40;;;24.20;66.20;;;;;;5074671;28;20494;-56
2023/07/20 11:38:59;;;;;;;28.67;27.77;;;24.20;66.60;;;;;;5074695;28;20447;-52
2023/07/20 11:41:26;;;;;;;28.00;27.10;;;24.20;66.70;;;;;;5074667;28;20477;-52
2023/07/20 11:43:55;;;;;;;28.40;27.50;;;24.30;66.80;;;;;;5074569;28;20443;-52
2023/07/20 11:46:22;;;;;;;28.17;27.17;;;24.20;66.30;;;;;;5074296;28;20909;-50
2023/07/20 11:48:49;;;;;;;27.80;26.90;;;24.30;66.30;;;;;;5074363;28;20566;-55
2023/07/20 11:51:16;;;;;;;26.70;25.80;;;24.30;66.20;;;;;;5074501;28;20821;-50
2023/07/20 11:53:45;;;;;;;29.00;28.10;;;24.30;66.30;;;;;;5074726;28;20443;-55
2023/07/20 11:56:13;;;;;;;29.37;28.47;;;24.30;66.30;;;;;;5074247;28;20845;-52
2023/07/20 11:58:44;;;;;;;31.10;30.00;;;24.30;66.10;;;;;;5074225;28;20948;-54
2023/07/20 12:01:13;;;;;;;26.93;26.13;;;24.30;65.90;;;;;;5074359;28;20501;-52
2023/07/20 12:03:39;;;;;;;29.53;28.63;;;24.30;65.70;;;;;;5074156;28;20548;-53
2023/07/20 12:06:10;;;;;;;28.57;27.67;;;24.20;65.70;;;;;;5073834;28;20506;-52
2023/07/20 12:08:40;;;;;;;27.50;26.60;;;24.20;66.00;;;;;;5073683;28;20845;-51
2023/07/20 12:11:07;;;;;;;29.20;28.20;;;24.30;66.40;;;;;;5074030;28;20451;-56
2023/07/20 12:13:38;;;;;;;28.03;27.13;;;24.30;66.40;;;;;;5074081;28;20538;-51
2023/07/20 12:16:13;;;;;;;27.83;27.00;;;24.30;66.00;;;;;;5073845;28;21020;-56
2023/07/20 12:18:39;;;;;;;31.43;30.43;;;24.30;65.20;;;;;;5073945;28;20525;-56
2023/07/20 12:21:08;;;;;;;28.10;27.10;;;24.30;65.20;;;;;;5073838;28;20530;-51
2023/07/20 12:23:39;;;;;;;28.27;27.30;;;24.30;64.80;;;;;;5074069;28;20451;-52
2023/07/20 12:26:09;;;;;;;27.93;27.03;;;24.30;64.60;;;;;;5073638;28;20878;-54
2023/07/20 12:28:39;;;;;;;28.53;27.60;;;24.30;64.40;;;;;;5073717;28;20490;-51
2023/07/20 12:31:06;;;;;;;28.73;27.83;;;24.30;64.50;;;;;;5073810;28;20450;-51
2023/07/20 12:33:34;;;;;;;29.63;28.70;;;24.30;64.50;;;;;;5073814;28;20501;-52